createdAt,value
2018-02-09T00:00:04.045Z,31.45
2018-02-09T00:02:31.613Z,31.10
2018-02-09T00:04:59.086Z,32.75
2018-02-09T00:07:26.542Z,31.73
2018-02-09T00:09:54.788Z,34.33
2018-02-09T00:12:22.258Z,34.92
2018-02-09T00:14:49.738Z,34.92
2018-02-09T00:17:18.014Z,32.53
2018-02-09T00:19:46.254Z,34.95
2018-02-09T00:22:13.754Z,39.08
2018-02-09T00:24:41.282Z,38.22
2018-02-09T00:27:08.745Z,37.92
2018-02-09T00:29:36.213Z,37.40
2018-02-09T00:32:04.539Z,36.10
2018-02-09T00:34:32.014Z,39.35
2018-02-09T00:36:59.518Z,39.70
2018-02-09T00:39:27.887Z,33.42
2018-02-09T00:41:56.118Z,37.92
2018-02-09T00:44:23.593Z,40.75
2018-02-09T00:46:51.081Z,38.17
2018-02-09T00:49:18.559Z,40.12
2018-02-09T00:51:46.019Z,42.80
2018-02-09T00:54:13.633Z,41.78
2018-02-09T00:56:41.862Z,41.95
2018-02-09T00:59:09.366Z,41.97
2018-02-09T01:01:37.741Z,39.63
2018-02-09T01:04:05.203Z,40.72
2018-02-09T01:06:33.435Z,43.40
2018-02-09T01:09:01.126Z,45.45
2018-02-09T01:11:30.112Z,42.72
2018-02-09T01:13:57.586Z,43.28
2018-02-09T01:16:25.846Z,44.70
2018-02-09T01:18:53.309Z,43.42
2018-02-09T01:21:20.766Z,42.70
2018-02-09T01:23:48.259Z,43.42
2018-02-09T01:26:15.726Z,42.67
2018-02-09T01:28:43.186Z,42.25
2018-02-09T01:31:10.678Z,44.00
2018-02-09T01:33:38.151Z,37.30
2018-02-09T01:36:05.666Z,42.83
2018-02-09T01:38:33.158Z,43.40
2018-02-09T01:41:00.626Z,44.90
2018-02-09T01:43:28.945Z,42.85
2018-02-09T01:45:56.408Z,43.65
2018-02-09T01:48:23.894Z,41.78
2018-02-09T01:50:52.139Z,45.15
2018-02-09T01:53:19.608Z,41.67
2018-02-09T01:55:47.200Z,42.80
2018-02-09T01:58:14.704Z,41.28
2018-02-09T02:00:42.155Z,44.05
2018-02-09T02:03:09.651Z,42.40
2018-02-09T02:05:37.101Z,44.22
2018-02-09T02:08:04.583Z,41.10
2018-02-09T02:10:32.055Z,39.67
2018-02-09T02:13:00.286Z,44.60
2018-02-09T02:15:27.766Z,39.35
2018-02-09T02:17:55.225Z,35.78
2018-02-09T02:20:22.709Z,42.97
2018-02-09T02:22:50.970Z,41.40
2018-02-09T02:25:19.202Z,36.72
2018-02-09T02:27:46.667Z,39.13
2018-02-09T02:30:14.151Z,42.62
2018-02-09T02:32:41.610Z,43.55
2018-02-09T02:35:09.854Z,43.40
2018-02-09T02:37:37.320Z,40.83
2018-02-09T02:40:05.665Z,41.42
2018-02-09T02:42:33.158Z,38.65
2018-02-09T02:45:00.625Z,38.90
2018-02-09T02:47:28.115Z,43.03
2018-02-09T02:49:55.582Z,40.03
2018-02-09T02:52:23.039Z,41.17
2018-02-09T02:54:50.522Z,41.60
2018-02-09T02:57:17.982Z,39.40
2018-02-09T02:59:45.451Z,42.20
2018-02-09T03:02:12.925Z,39.40
2018-02-09T03:04:41.163Z,36.63
2018-02-09T03:07:08.633Z,39.10
2018-02-09T03:09:36.309Z,39.10
2018-02-09T03:12:03.778Z,39.97
2018-02-09T03:14:31.240Z,37.80
2018-02-09T03:16:59.601Z,36.25
2018-02-09T03:19:27.161Z,38.85
2018-02-09T03:21:54.627Z,39.55
2018-02-09T03:24:22.114Z,40.95
2018-02-09T03:26:49.681Z,38.60
2018-02-09T03:29:17.147Z,32.40
2018-02-09T03:31:44.753Z,38.78
2018-02-09T03:34:12.219Z,39.72
2018-02-09T03:36:40.451Z,37.58
2018-02-09T03:39:07.933Z,41.15
2018-02-09T03:41:35.402Z,39.05
2018-02-09T03:44:03.634Z,37.55
2018-02-09T03:46:31.122Z,38.60
2018-02-09T03:48:58.585Z,37.90
2018-02-09T03:51:26.817Z,37.35
2018-02-09T03:53:54.298Z,39.88
2018-02-09T03:56:21.776Z,35.65
2018-02-09T03:58:49.254Z,34.92
2018-02-09T04:01:16.734Z,37.67
2018-02-09T04:03:44.197Z,36.17
2018-02-09T04:06:11.678Z,36.38
2018-02-09T04:08:39.153Z,33.40
2018-02-09T04:11:06.619Z,37.60
2018-02-09T04:13:34.866Z,37.83
2018-02-09T04:16:02.337Z,38.40
2018-02-09T04:18:29.802Z,37.00
2018-02-09T04:20:57.311Z,41.40
2018-02-09T04:23:24.778Z,35.75
2018-02-09T04:25:52.316Z,32.78
2018-02-09T04:28:19.795Z,36.50
2018-02-09T04:30:47.266Z,39.45
2018-02-09T04:33:14.730Z,38.60
2018-02-09T04:35:42.222Z,39.40
2018-02-09T04:38:10.453Z,40.75
2018-02-09T04:40:37.941Z,40.22
2018-02-09T04:43:06.172Z,39.22
2018-02-09T04:45:33.634Z,37.25
2018-02-09T04:48:01.121Z,41.47
2018-02-09T04:50:29.354Z,38.90
2018-02-09T04:52:56.834Z,40.33
2018-02-09T04:55:25.506Z,39.20
2018-02-09T04:57:52.963Z,40.53
2018-02-09T05:00:20.646Z,39.95
2018-02-09T05:02:48.118Z,36.45
2018-02-09T05:05:16.366Z,38.10
2018-02-09T05:07:43.844Z,42.22
2018-02-09T05:10:12.068Z,39.55
2018-02-09T05:12:39.538Z,40.60
2018-02-09T05:15:07.028Z,37.63
2018-02-09T05:17:34.494Z,41.22
2018-02-09T05:20:02.722Z,41.47
2018-02-09T05:22:30.222Z,39.55
2018-02-09T05:24:58.454Z,39.03
2018-02-09T05:27:25.909Z,41.33
2018-02-09T05:29:53.393Z,33.78
2018-02-09T05:32:20.862Z,40.33
2018-02-09T05:34:48.338Z,35.55
2018-02-09T05:37:15.824Z,38.22
2018-02-09T05:39:43.285Z,40.47
2018-02-09T05:42:10.768Z,40.78
2018-02-09T05:44:38.238Z,39.97
2018-02-09T05:47:05.710Z,40.12
2018-02-09T05:49:33.951Z,38.28
2018-02-09T05:52:01.423Z,40.88
2018-02-09T05:54:28.901Z,42.70
2018-02-09T05:56:57.143Z,41.50
2018-02-09T05:59:24.602Z,43.20
2018-02-09T06:01:52.121Z,40.00
2018-02-09T06:04:19.575Z,39.85
2018-02-09T06:06:47.033Z,42.97
2018-02-09T06:09:14.540Z,45.22
2018-02-09T06:11:42.009Z,44.38
2018-02-09T06:14:10.238Z,45.53
2018-02-09T06:16:38.542Z,43.75
2018-02-09T06:19:06.006Z,47.35
2018-02-09T06:21:33.465Z,38.70
2018-02-09T06:24:01.738Z,44.78
2018-02-09T06:26:29.295Z,48.83
2018-02-09T06:28:56.758Z,44.85
2018-02-09T06:31:25.002Z,46.05
2018-02-09T06:33:52.458Z,43.28
2018-02-09T06:36:19.921Z,44.05
2018-02-09T06:38:48.947Z,45.17
2018-02-09T06:41:17.177Z,41.75
2018-02-09T06:43:44.650Z,43.38
2018-02-09T06:46:12.226Z,47.42
2018-02-09T06:48:39.671Z,37.25
2018-02-09T06:51:07.140Z,47.10
2018-02-09T06:53:35.511Z,43.30
2018-02-09T06:56:02.979Z,38.00
2018-02-09T06:58:31.214Z,43.33
2018-02-09T07:00:58.701Z,43.03
2018-02-09T07:03:26.175Z,44.15
2018-02-09T07:05:54.414Z,39.28
2018-02-09T07:08:21.904Z,43.50
2018-02-09T07:10:50.134Z,33.55
2018-02-09T07:13:17.613Z,43.60
2018-02-09T07:15:45.126Z,45.72
2018-02-09T07:18:12.594Z,43.13
2018-02-09T07:20:40.082Z,40.83
2018-02-09T07:23:07.578Z,40.33
2018-02-09T07:25:35.798Z,39.50
2018-02-09T07:28:03.269Z,38.05
2018-02-09T07:30:30.752Z,39.92
2018-02-09T07:32:59.057Z,41.25
2018-02-09T07:35:26.519Z,42.47
2018-02-09T07:37:54.011Z,34.10
2018-02-09T07:40:21.482Z,31.70
2018-02-09T07:42:48.946Z,40.22
2018-02-09T07:45:17.198Z,33.42
2018-02-09T07:47:44.657Z,33.38
2018-02-09T07:50:12.126Z,34.47
2018-02-09T07:52:39.629Z,37.08
2018-02-09T07:55:07.187Z,36.03
2018-02-09T07:57:34.746Z,29.25
2018-02-09T08:00:02.231Z,32.17
2018-02-09T08:02:29.701Z,34.00
2018-02-09T08:04:57.217Z,35.22
2018-02-09T08:07:24.678Z,33.75
2018-02-09T08:09:52.166Z,30.55
2018-02-09T08:12:19.640Z,28.75
2018-02-09T08:14:47.116Z,31.45
2018-02-09T08:17:15.392Z,27.75
2018-02-09T08:19:42.841Z,24.17
2018-02-09T08:22:11.071Z,25.60
2018-02-09T08:24:38.565Z,27.98
2018-02-09T08:27:06.045Z,34.10
2018-02-09T08:29:33.520Z,28.50
2018-02-09T08:32:01.181Z,23.80
2018-02-09T08:34:28.656Z,28.52
2018-02-09T08:36:56.118Z,24.95
2018-02-09T08:39:23.599Z,28.38
2018-02-09T08:41:51.062Z,26.20
2018-02-09T08:44:19.311Z,21.33
2018-02-09T08:46:46.776Z,24.35
2018-02-09T08:49:14.297Z,26.67
2018-02-09T08:51:41.754Z,29.15
2018-02-09T08:54:09.238Z,24.20
2018-02-09T08:56:36.714Z,24.10
2018-02-09T08:59:04.193Z,24.95
2018-02-09T09:01:32.451Z,28.85
2018-02-09T09:04:00.680Z,28.33
2018-02-09T09:06:28.195Z,29.12
2018-02-09T09:08:55.656Z,18.90
2018-02-09T09:11:23.882Z,24.80
2018-02-09T09:13:51.358Z,22.92
2018-02-09T09:16:19.040Z,21.52
2018-02-09T09:18:47.273Z,21.58
2018-02-09T09:21:14.739Z,22.10
2018-02-09T09:23:42.230Z,29.05
2018-02-09T09:26:10.466Z,30.33
2018-02-09T09:28:37.932Z,28.02
2018-02-09T09:31:06.198Z,31.15
2018-02-09T09:33:33.677Z,28.50
2018-02-09T09:36:01.137Z,32.95
2018-02-09T09:38:29.396Z,30.35
2018-02-09T09:40:56.858Z,26.10
2018-02-09T09:43:24.327Z,26.98
2018-02-09T09:45:52.578Z,28.25
2018-02-09T09:48:20.053Z,32.90
2018-02-09T09:50:47.514Z,28.90
2018-02-09T09:53:14.989Z,27.83
2018-02-09T09:55:42.468Z,27.07
2018-02-09T09:58:09.933Z,32.10
2018-02-09T10:00:37.418Z,30.67
2018-02-09T10:03:04.896Z,26.15
2018-02-09T10:05:33.181Z,34.75
2018-02-09T10:08:00.664Z,24.03
2018-02-09T10:10:28.133Z,22.43
2018-02-09T10:12:55.626Z,27.37
2018-02-09T10:15:23.110Z,29.35
2018-02-09T10:17:51.381Z,28.83
2018-02-09T10:20:19.628Z,29.40
2018-02-09T10:22:47.110Z,31.83
2018-02-09T10:25:14.574Z,28.90
2018-02-09T10:27:42.822Z,24.83
2018-02-09T10:30:10.303Z,31.40
2018-02-09T10:32:39.474Z,30.03
2018-02-09T10:35:07.324Z,28.97
2018-02-09T10:37:34.593Z,28.97
2018-02-09T10:40:02.064Z,24.90
2018-02-09T10:42:29.519Z,27.17
2018-02-09T10:44:57.010Z,31.90
2018-02-09T10:47:25.114Z,25.30
2018-02-09T10:49:52.591Z,30.57
2018-02-09T10:52:21.582Z,25.60
2018-02-09T10:54:49.055Z,27.20
2018-02-09T10:57:16.530Z,31.03
2018-02-09T10:59:44.761Z,26.40
2018-02-09T11:02:12.222Z,25.73
2018-02-09T11:04:39.721Z,25.20
2018-02-09T11:07:07.205Z,30.60
2018-02-09T11:09:34.674Z,27.90
2018-02-09T11:12:02.145Z,28.97
2018-02-09T11:14:29.635Z,30.07
2018-02-09T11:16:57.899Z,25.97
2018-02-09T11:19:25.366Z,28.10
2018-02-09T11:21:53.594Z,30.20
2018-02-09T11:24:21.070Z,31.40
2018-02-09T11:26:48.546Z,20.80
2018-02-09T11:29:16.016Z,30.53
2018-02-09T11:31:44.275Z,27.70
2018-02-09T11:34:12.714Z,31.80
2018-02-09T11:36:40.172Z,28.67
2018-02-09T11:39:07.650Z,30.53
2018-02-09T11:41:35.113Z,28.13
2018-02-09T11:44:03.367Z,25.13
2018-02-09T11:46:30.847Z,26.40
2018-02-09T11:48:58.301Z,23.47
2018-02-09T11:51:25.769Z,22.67
2018-02-09T11:53:53.275Z,29.30
2018-02-09T11:56:20.732Z,28.03
2018-02-09T11:58:48.191Z,31.23
2018-02-09T12:01:15.669Z,26.60
2018-02-09T12:03:43.130Z,28.47
2018-02-09T12:06:10.618Z,26.83
2018-02-09T12:08:38.847Z,26.63
2018-02-09T12:11:06.305Z,28.83
2018-02-09T12:13:33.786Z,28.53
2018-02-09T12:16:02.023Z,25.33
2018-02-09T12:18:29.523Z,28.60
2018-02-09T12:20:56.982Z,25.13
2018-02-09T12:23:24.455Z,19.83
2018-02-09T12:25:52.697Z,22.40
2018-02-09T12:28:20.178Z,23.20
2018-02-09T12:30:48.407Z,21.20
2018-02-09T12:33:15.995Z,23.77
2018-02-09T12:35:43.468Z,22.73
2018-02-09T12:38:11.699Z,23.90
2018-02-09T12:40:39.186Z,28.33
2018-02-09T12:43:06.657Z,21.67
2018-02-09T12:45:34.879Z,21.73
2018-02-09T12:48:02.359Z,21.63
2018-02-09T12:50:29.822Z,23.47
2018-02-09T12:52:57.302Z,21.60
2018-02-09T12:55:25.541Z,20.93
2018-02-09T12:57:53.026Z,22.77
2018-02-09T13:00:20.494Z,22.20
2018-02-09T13:02:48.729Z,24.50
2018-02-09T13:05:16.206Z,22.23
2018-02-09T13:07:44.454Z,25.57
2018-02-09T13:10:11.926Z,26.67
2018-02-09T13:12:51.295Z,17.67
2018-02-09T13:15:19.532Z,25.10
2018-02-09T13:17:46.990Z,24.93
2018-02-09T13:20:14.484Z,23.10
2018-02-09T13:22:54.612Z,25.98
2018-02-09T13:25:22.102Z,19.83
2018-02-09T13:27:49.580Z,25.00
2018-02-09T13:30:17.046Z,21.07
2018-02-09T13:32:56.594Z,21.98
2018-02-09T13:35:24.080Z,24.37
2018-02-09T13:37:51.538Z,20.33
2018-02-09T13:40:19.035Z,24.80
2018-02-09T13:42:46.506Z,29.10
2018-02-09T13:45:14.864Z,22.87
2018-02-09T13:47:42.521Z,20.80
2018-02-09T13:50:09.986Z,22.10
2018-02-09T13:52:37.459Z,22.60
2018-02-09T13:55:04.941Z,20.07
2018-02-09T13:57:32.429Z,20.73
2018-02-09T13:59:59.893Z,23.75
2018-02-09T14:02:28.150Z,23.92
2018-02-09T14:04:57.137Z,26.50
2018-02-09T14:07:24.613Z,25.10
2018-02-09T14:09:52.858Z,22.67
2018-02-09T14:12:20.330Z,27.02
2018-02-09T14:14:47.786Z,19.17
2018-02-09T14:17:15.292Z,24.75
2018-02-09T14:19:42.774Z,23.30
2018-02-09T14:22:10.242Z,26.80
2018-02-09T14:24:37.747Z,24.27
2018-02-09T14:27:05.224Z,26.37
2018-02-09T14:29:32.782Z,22.92
2018-02-09T14:32:00.247Z,21.45
2018-02-09T14:34:27.718Z,23.90
2018-02-09T14:36:55.207Z,21.25
2018-02-09T14:39:23.466Z,23.02
2018-02-09T14:41:50.942Z,23.52
2018-02-09T14:44:19.251Z,23.55
2018-02-09T14:46:46.720Z,23.98
2018-02-09T14:49:14.189Z,25.27
2018-02-09T14:51:41.786Z,22.95
2018-02-09T14:54:10.028Z,27.23
2018-02-09T14:56:37.498Z,27.75
2018-02-09T14:59:04.973Z,25.73
2018-02-09T15:01:33.216Z,21.80
2018-02-09T15:04:00.694Z,20.55
2018-02-09T15:06:28.311Z,22.55
2018-02-09T15:08:55.785Z,24.40
2018-02-09T15:11:23.329Z,25.77
2018-02-09T15:13:50.743Z,23.90
2018-02-09T15:16:18.993Z,24.67
2018-02-09T15:18:46.453Z,23.42
2018-02-09T15:21:14.763Z,22.50
2018-02-09T15:23:42.998Z,18.87
2018-02-09T15:26:10.628Z,26.15
2018-02-09T15:28:38.091Z,22.58
2018-02-09T15:31:05.561Z,24.67
2018-02-09T15:33:33.055Z,21.37
2018-02-09T15:36:01.282Z,21.10
2018-02-09T15:38:28.754Z,19.83
2018-02-09T15:40:59.068Z,22.95
2018-02-09T15:43:26.535Z,16.60
2018-02-09T15:45:54.006Z,23.12
2018-02-09T15:48:21.522Z,20.62
2018-02-09T15:50:51.430Z,18.35
2018-02-09T15:53:18.906Z,20.10
2018-02-09T15:55:46.504Z,21.05
2018-02-09T15:58:13.978Z,17.27
2018-02-09T16:00:42.198Z,17.87
2018-02-09T16:03:09.688Z,14.85
2018-02-09T16:05:37.159Z,17.52
2018-02-09T16:08:05.398Z,16.17
2018-02-09T16:10:32.925Z,15.00
2018-02-09T16:13:00.393Z,16.20
2018-02-09T16:15:27.868Z,14.20
2018-02-09T16:17:55.351Z,15.95
2018-02-09T16:20:23.602Z,13.90
2018-02-09T16:22:51.073Z,15.38
2018-02-09T16:25:18.571Z,14.90
2018-02-09T16:27:46.114Z,14.82
2018-02-09T16:30:13.581Z,12.52
2018-02-09T16:32:41.093Z,14.38
2018-02-09T16:35:08.584Z,15.10
2018-02-09T16:37:36.814Z,17.30
2018-02-09T16:40:04.306Z,13.48
2018-02-09T16:42:32.551Z,15.48
2018-02-09T16:45:00.013Z,15.82
2018-02-09T16:47:27.683Z,12.05
2018-02-09T16:49:55.153Z,13.27
2018-02-09T16:52:23.398Z,13.32
2018-02-09T16:54:51.028Z,15.30
2018-02-09T16:57:18.496Z,15.55
2018-02-09T16:59:46.260Z,14.73
2018-02-09T17:02:13.854Z,14.65
2018-02-09T17:04:41.338Z,15.00
2018-02-09T17:07:09.570Z,13.23
2018-02-09T17:09:39.346Z,14.07
2018-02-09T17:12:06.803Z,14.32
2018-02-09T17:14:34.271Z,15.20
2018-02-09T17:17:01.768Z,14.40
2018-02-09T17:19:29.963Z,14.10
2018-02-09T17:21:58.190Z,14.00
2018-02-09T17:24:25.705Z,13.35
2018-02-09T17:26:53.761Z,14.38
2018-02-09T17:29:22.232Z,14.10
2018-02-09T17:31:50.477Z,13.38
2018-02-09T17:34:17.972Z,11.75
2018-02-09T17:36:46.224Z,11.55
2018-02-09T17:39:14.586Z,12.70
2018-02-09T17:41:42.045Z,14.82
2018-02-09T17:44:09.523Z,11.40
2018-02-09T17:46:37.015Z,15.60
2018-02-09T17:49:04.480Z,14.07
2018-02-09T17:51:32.014Z,16.23
2018-02-09T17:54:00.279Z,14.52
2018-02-09T17:56:28.507Z,13.18
2018-02-09T17:58:55.974Z,14.80
2018-02-09T18:01:23.485Z,11.60
2018-02-09T18:03:50.983Z,13.57
2018-02-09T18:06:18.444Z,13.68
2018-02-09T18:08:46.134Z,12.70
2018-02-09T18:11:14.366Z,15.02
2018-02-09T18:13:41.840Z,11.68
2018-02-09T18:16:09.329Z,10.52
2018-02-09T18:18:37.566Z,14.98
2018-02-09T18:21:05.035Z,13.73
2018-02-09T18:23:32.773Z,15.40
2018-02-09T18:26:00.243Z,15.55
2018-02-09T18:28:27.710Z,16.50
2018-02-09T18:30:55.201Z,13.43
2018-02-09T18:33:23.434Z,15.18
2018-02-09T18:35:50.931Z,12.98
2018-02-09T18:38:19.185Z,13.65
2018-02-09T18:40:46.693Z,11.70
2018-02-09T18:43:14.158Z,13.62
2018-02-09T18:45:41.646Z,12.15
2018-02-09T18:48:09.168Z,12.35
2018-02-09T18:50:36.645Z,12.85
2018-02-09T18:53:04.241Z,13.40
2018-02-09T18:55:32.487Z,14.32
2018-02-09T18:57:59.968Z,13.93
2018-02-09T19:00:27.466Z,14.90
2018-02-09T19:02:54.923Z,16.08
2018-02-09T19:05:22.395Z,15.27
2018-02-09T19:07:49.878Z,14.82
2018-02-09T19:10:17.348Z,14.07
2018-02-09T19:12:44.823Z,13.88
2018-02-09T19:15:13.187Z,13.80
2018-02-09T19:17:40.677Z,16.23
2018-02-09T19:20:08.155Z,15.43
2018-02-09T19:22:35.646Z,13.57
2018-02-09T19:25:03.118Z,16.23
2018-02-09T19:27:31.381Z,11.32
2018-02-09T19:29:58.854Z,11.12
2018-02-09T19:32:27.095Z,15.20
2018-02-09T19:34:54.558Z,13.93
2018-02-09T19:37:22.144Z,16.52
2018-02-09T19:39:50.374Z,13.98
2018-02-09T19:42:17.843Z,12.75
2018-02-09T19:44:45.446Z,11.57
2018-02-09T19:47:13.695Z,13.50
2018-02-09T19:49:41.159Z,12.07
2018-02-09T19:52:08.642Z,13.40
2018-02-09T19:54:36.132Z,13.40
2018-02-09T19:57:03.594Z,13.43
2018-02-09T19:59:31.089Z,13.93
2018-02-09T20:01:59.412Z,15.27
2018-02-09T20:04:26.887Z,13.70
2018-02-09T20:06:54.363Z,13.50
2018-02-09T20:09:21.939Z,16.30
2018-02-09T20:11:50.262Z,12.43
2018-02-09T20:14:17.750Z,15.73
2018-02-09T20:16:45.580Z,14.40
2018-02-09T20:19:13.647Z,14.87
2018-02-09T20:21:41.143Z,15.57
2018-02-09T20:24:09.406Z,12.82
2018-02-09T20:26:36.878Z,13.57
2018-02-09T20:29:04.382Z,13.48
2018-02-09T20:31:31.845Z,14.27
2018-02-09T20:33:59.363Z,15.68
2018-02-09T20:36:27.631Z,14.32
2018-02-09T20:38:55.117Z,12.10
2018-02-09T20:41:23.481Z,13.20
2018-02-09T20:43:51.731Z,15.57
2018-02-09T20:46:19.202Z,14.80
2018-02-09T20:48:48.206Z,14.30
2018-02-09T20:51:16.442Z,14.02
2018-02-09T20:53:44.155Z,17.58
2018-02-09T20:56:12.424Z,15.68
2018-02-09T20:58:40.663Z,12.07
2018-02-09T21:01:08.388Z,15.00
2018-02-09T21:03:35.915Z,15.50
2018-02-09T21:06:04.150Z,14.38
2018-02-09T21:08:31.640Z,14.60
2018-02-09T21:10:59.111Z,14.40
2018-02-09T21:13:27.363Z,14.75
2018-02-09T21:15:54.840Z,15.75
2018-02-09T21:18:23.066Z,15.02
2018-02-09T21:20:51.333Z,13.27
2018-02-09T21:23:18.814Z,12.63
2018-02-09T21:25:46.303Z,14.82
2018-02-09T21:28:14.540Z,15.00
2018-02-09T21:30:43.545Z,15.02
2018-02-09T21:33:11.011Z,14.77
2018-02-09T21:35:39.284Z,14.20
2018-02-09T21:38:06.833Z,16.00
2018-02-09T21:40:34.294Z,13.43
2018-02-09T21:43:01.776Z,14.15
2018-02-09T21:45:30.019Z,13.55
2018-02-09T21:47:57.510Z,13.50
2018-02-09T21:50:25.754Z,15.38
2018-02-09T21:52:53.260Z,14.80
2018-02-09T21:55:20.726Z,14.18
2018-02-09T21:57:48.200Z,15.80
2018-02-09T22:00:15.678Z,15.93
2018-02-09T22:02:43.150Z,14.75
2018-02-09T22:05:10.650Z,15.73
2018-02-09T22:07:38.126Z,15.93
2018-02-09T22:10:05.625Z,14.43
2018-02-09T22:12:33.114Z,15.68
2018-02-09T22:15:00.590Z,14.48
2018-02-09T22:17:28.046Z,15.13
2018-02-09T22:19:55.651Z,16.40
2018-02-09T22:22:23.906Z,14.90
2018-02-09T22:24:51.369Z,14.80
2018-02-09T22:27:18.910Z,16.85
2018-02-09T22:29:46.392Z,15.30
2018-02-09T22:32:13.889Z,15.18
2018-02-09T22:34:41.367Z,16.08
2018-02-09T22:37:08.861Z,16.42
2018-02-09T22:39:36.329Z,15.55
2018-02-09T22:42:04.894Z,16.95
2018-02-09T22:44:32.417Z,16.58
2018-02-09T22:47:00.693Z,14.43
2018-02-09T22:49:28.175Z,15.95
2018-02-09T22:51:55.640Z,15.93
2018-02-09T22:54:23.115Z,16.45
2018-02-09T22:56:51.387Z,16.73
2018-02-09T22:59:19.626Z,16.60
2018-02-09T23:01:47.114Z,16.77
2018-02-09T23:04:14.611Z,17.08
2018-02-09T23:06:42.078Z,16.50
2018-02-09T23:09:09.550Z,15.90
2018-02-09T23:11:37.030Z,17.15
2018-02-09T23:14:04.501Z,16.05
2018-02-09T23:16:32.747Z,16.27
2018-02-09T23:19:00.230Z,17.00
2018-02-09T23:21:28.552Z,16.85
2018-02-09T23:23:56.046Z,17.30
2018-02-09T23:26:23.551Z,16.60
2018-02-09T23:28:51.008Z,18.48
2018-02-09T23:31:18.494Z,17.85
2018-02-09T23:33:45.990Z,17.30
2018-02-09T23:36:13.457Z,17.17
2018-02-09T23:38:41.717Z,17.23
2018-02-09T23:41:09.182Z,19.77
2018-02-09T23:43:37.500Z,20.05
2018-02-09T23:46:04.999Z,18.12
2018-02-09T23:48:32.473Z,20.98
2018-02-09T23:51:00.791Z,18.52
2018-02-09T23:53:28.282Z,20.08
2018-02-09T23:55:55.750Z,20.25
2018-02-09T23:58:23.236Z,21.10
